createdAt,value
2017-11-01T00:00:58.485Z,5.60
2017-11-01T00:03:26.027Z,6.00
2017-11-01T00:05:53.562Z,6.37
2017-11-01T00:08:21.142Z,5.37
2017-11-01T00:10:48.696Z,6.70
2017-11-01T00:13:16.267Z,5.73
2017-11-01T00:15:43.809Z,5.83
2017-11-01T00:18:11.375Z,5.27
2017-11-01T00:20:38.927Z,5.33
2017-11-01T00:23:06.501Z,5.47
2017-11-01T00:25:34.049Z,5.60
2017-11-01T00:28:02.394Z,5.30
2017-11-01T00:30:29.916Z,5.37
2017-11-01T00:32:57.442Z,5.50
2017-11-01T00:35:25.010Z,5.10
2017-11-01T00:37:52.547Z,4.97
2017-11-01T00:40:20.887Z,5.77
2017-11-01T00:42:48.405Z,4.43
2017-11-01T00:45:16.702Z,5.30
2017-11-01T00:47:44.260Z,5.23
2017-11-01T00:50:12.557Z,5.90
2017-11-01T00:52:40.173Z,4.93
2017-11-01T00:55:07.711Z,5.27
2017-11-01T00:57:35.277Z,5.43
2017-11-01T01:00:03.500Z,5.00
2017-11-01T01:02:31.057Z,6.10
2017-11-01T01:04:58.619Z,5.40
2017-11-01T01:07:26.215Z,6.43
2017-11-01T01:09:53.790Z,5.27
2017-11-01T01:12:21.323Z,4.10
2017-11-01T01:14:49.651Z,5.07
2017-11-01T01:17:17.165Z,5.30
2017-11-01T01:19:44.730Z,5.60
2017-11-01T01:22:12.261Z,5.70
2017-11-01T01:24:39.794Z,5.43
2017-11-01T01:27:08.112Z,4.87
2017-11-01T01:29:35.639Z,6.10
2017-11-01T01:32:03.199Z,4.70
2017-11-01T01:34:30.755Z,5.07
2017-11-01T01:36:59.046Z,5.23
2017-11-01T01:39:26.619Z,5.77
2017-11-01T01:41:54.161Z,6.30
2017-11-01T01:44:21.719Z,4.93
2017-11-01T01:46:50.018Z,4.90
2017-11-01T01:49:17.590Z,5.10
2017-11-01T01:51:45.151Z,4.73
2017-11-01T01:54:12.692Z,6.13
2017-11-01T01:56:40.266Z,5.67
2017-11-01T01:59:07.789Z,5.40
2017-11-01T02:01:35.348Z,5.40
2017-11-01T02:04:02.891Z,7.50
2017-11-01T02:06:30.428Z,6.47
2017-11-01T02:08:57.989Z,5.30
2017-11-01T02:11:25.527Z,5.37
2017-11-01T02:13:53.082Z,4.83
2017-11-01T02:16:21.416Z,4.10
2017-11-01T02:18:48.985Z,4.53
2017-11-01T02:21:16.526Z,5.90
2017-11-01T02:23:44.831Z,5.50
2017-11-01T02:26:12.398Z,5.00
2017-11-01T02:28:39.927Z,4.57
2017-11-01T02:31:07.459Z,5.30
2017-11-01T02:33:35.025Z,5.27
2017-11-01T02:36:02.586Z,4.83
2017-11-01T02:38:30.909Z,5.53
2017-11-01T02:40:58.464Z,5.40
2017-11-01T02:43:26.022Z,4.83
2017-11-01T02:45:53.605Z,5.10
2017-11-01T02:48:21.163Z,6.07
2017-11-01T02:50:48.747Z,5.60
2017-11-01T02:53:16.329Z,5.57
2017-11-01T02:55:43.857Z,5.60
2017-11-01T02:58:11.448Z,6.10
2017-11-01T03:00:39.756Z,5.93
2017-11-01T03:03:07.322Z,5.30
2017-11-01T03:05:34.854Z,5.93
2017-11-01T03:08:02.431Z,4.73
2017-11-01T03:10:29.989Z,5.33
2017-11-01T03:12:58.331Z,5.07
2017-11-01T03:15:25.890Z,5.83
2017-11-01T03:17:54.185Z,5.00
2017-11-01T03:20:21.759Z,5.70
2017-11-01T03:22:49.316Z,5.40
2017-11-01T03:25:17.673Z,6.40
2017-11-01T03:27:45.215Z,6.10
2017-11-01T03:30:12.766Z,5.40
2017-11-01T03:32:40.299Z,5.37
2017-11-01T03:35:07.881Z,6.30
2017-11-01T03:37:35.438Z,5.10
2017-11-01T03:40:02.967Z,5.70
2017-11-01T03:42:30.536Z,6.30
2017-11-01T03:44:58.061Z,7.30
2017-11-01T03:47:25.661Z,5.83
2017-11-01T03:49:53.960Z,5.33
2017-11-01T03:52:21.525Z,5.70
2017-11-01T03:54:49.807Z,5.17
2017-11-01T03:57:18.133Z,5.43
2017-11-01T03:59:45.697Z,6.57
2017-11-01T04:02:13.215Z,5.50
2017-11-01T04:04:40.740Z,6.40
2017-11-01T04:07:08.331Z,5.93
2017-11-01T04:09:35.886Z,5.67
2017-11-01T04:12:03.418Z,6.43
2017-11-01T04:14:31.011Z,6.90
2017-11-01T04:17:01.502Z,6.00
2017-11-01T04:19:29.350Z,5.93
2017-11-01T04:21:56.916Z,7.07
2017-11-01T04:24:24.448Z,5.83
2017-11-01T04:26:52.005Z,9.73
2017-11-01T04:29:19.545Z,6.90
2017-11-01T04:31:47.145Z,6.90
2017-11-01T04:34:14.690Z,7.33
2017-11-01T04:36:42.214Z,7.10
2017-11-01T04:39:09.777Z,6.50
2017-11-01T04:41:37.314Z,7.27
2017-11-01T04:44:04.892Z,5.73
2017-11-01T04:46:32.423Z,6.80
2017-11-01T04:48:59.996Z,5.90
2017-11-01T04:51:27.534Z,7.07
2017-11-01T04:53:55.061Z,6.67
2017-11-01T04:56:24.438Z,6.57
2017-11-01T04:58:52.767Z,7.03
2017-11-01T05:01:20.300Z,6.40
2017-11-01T05:03:48.716Z,6.20
2017-11-01T05:06:19.142Z,7.30
2017-11-01T05:08:49.192Z,6.73
2017-11-01T05:11:18.627Z,6.57
2017-11-01T05:16:45.962Z,6.03
2017-11-01T05:19:15.155Z,6.13
2017-11-01T05:21:42.674Z,9.00
2017-11-01T05:24:10.966Z,6.83
2017-11-01T05:26:38.546Z,7.43
2017-11-01T05:29:06.073Z,7.47
2017-11-01T05:34:25.002Z,6.60
2017-11-01T05:36:52.578Z,5.93
2017-11-01T05:39:20.132Z,7.13
2017-11-01T05:41:47.724Z,6.97
2017-11-01T05:44:16.018Z,8.40
2017-11-01T05:46:43.555Z,6.57
2017-11-01T05:49:11.148Z,7.80
2017-11-01T05:51:39.453Z,8.50
2017-11-01T05:54:07.000Z,7.00
2017-11-01T05:56:34.588Z,6.37
2017-11-01T05:59:02.884Z,7.40
2017-11-01T06:01:31.210Z,6.70
2017-11-01T06:03:58.736Z,7.87
2017-11-01T06:06:27.074Z,5.87
2017-11-01T06:08:54.650Z,5.70
2017-11-01T06:11:22.228Z,6.70
2017-11-01T06:13:49.783Z,7.10
2017-11-01T06:16:17.317Z,6.43
2017-11-01T06:18:45.740Z,8.30
2017-11-01T06:21:13.293Z,8.47
2017-11-01T06:23:40.926Z,7.07
2017-11-01T06:26:08.499Z,6.10
2017-11-01T06:28:36.034Z,8.20
2017-11-01T06:31:03.593Z,7.20
2017-11-01T06:33:31.150Z,7.37
2017-11-01T06:35:59.522Z,7.43
2017-11-01T06:38:27.071Z,7.40
2017-11-01T06:40:54.621Z,6.83
2017-11-01T06:43:22.278Z,7.17
2017-11-01T06:45:49.859Z,8.70
2017-11-01T06:48:17.374Z,8.23
2017-11-01T06:50:44.938Z,8.57
2017-11-01T06:53:13.134Z,8.43
2017-11-01T06:55:40.694Z,7.80
2017-11-01T06:58:08.288Z,7.97
2017-11-01T07:00:38.795Z,8.03
2017-11-01T07:03:06.409Z,6.50
2017-11-01T07:05:34.742Z,6.60
2017-11-01T07:08:02.291Z,7.17
2017-11-01T07:10:29.867Z,6.90
2017-11-01T07:12:57.409Z,6.80
2017-11-01T07:15:24.976Z,7.50
2017-11-01T07:17:52.582Z,7.80
2017-11-01T07:20:20.125Z,7.70
2017-11-01T07:22:47.685Z,8.30
2017-11-01T07:25:15.217Z,7.93
2017-11-01T07:27:43.535Z,7.17
2017-11-01T07:30:11.055Z,7.27
2017-11-01T07:32:38.686Z,7.20
2017-11-01T07:35:06.261Z,7.40
2017-11-01T07:37:33.790Z,8.10
2017-11-01T07:40:01.309Z,6.60
2017-11-01T07:42:28.995Z,8.07
2017-11-01T07:44:56.601Z,6.80
2017-11-01T07:47:24.222Z,8.17
2017-11-01T07:49:51.770Z,8.43
2017-11-01T07:52:19.338Z,8.53
2017-11-01T07:54:46.858Z,7.77
2017-11-01T07:57:17.826Z,8.00
2017-11-01T07:59:45.417Z,10.17
2017-11-01T08:02:12.944Z,9.63
2017-11-01T08:04:40.535Z,10.00
2017-11-01T08:07:08.073Z,9.07
2017-11-01T08:09:35.621Z,8.00
2017-11-01T08:12:03.146Z,12.57
2017-11-01T08:14:30.726Z,9.07
2017-11-01T08:16:59.022Z,8.50
2017-11-01T08:19:27.324Z,10.27
2017-11-01T08:21:54.900Z,14.20
2017-11-01T08:24:22.429Z,10.70
2017-11-01T08:26:49.997Z,7.70
2017-11-01T08:29:17.533Z,9.17
2017-11-01T08:31:45.109Z,9.20
2017-11-01T08:34:12.665Z,9.77
2017-11-01T08:36:40.226Z,9.80
2017-11-01T08:39:08.516Z,7.80
2017-11-01T08:41:36.049Z,7.90
2017-11-01T08:44:03.626Z,7.97
2017-11-01T08:46:31.196Z,9.27
2017-11-01T08:48:58.731Z,7.70
2017-11-01T08:51:26.314Z,7.93
2017-11-01T08:53:53.842Z,8.90
2017-11-01T08:56:22.196Z,9.70
2017-11-01T08:58:49.767Z,7.63
2017-11-01T09:01:17.354Z,9.93
2017-11-01T09:03:44.917Z,8.40
2017-11-01T09:06:12.469Z,9.17
2017-11-01T09:08:40.074Z,8.60
2017-11-01T09:11:07.651Z,9.20
2017-11-01T09:13:35.214Z,8.90
2017-11-01T09:16:02.734Z,7.43
2017-11-01T09:18:30.346Z,6.60
2017-11-01T09:20:57.995Z,7.37
2017-11-01T09:23:25.599Z,6.87
2017-11-01T09:25:53.205Z,7.10
2017-11-01T09:28:22.001Z,7.63
2017-11-01T09:30:50.327Z,8.40
2017-11-01T09:33:17.885Z,5.80
2017-11-01T09:35:45.456Z,6.70
2017-11-01T09:38:12.973Z,6.57
2017-11-01T09:40:40.510Z,6.50
2017-11-01T09:43:08.066Z,7.33
2017-11-01T09:45:35.626Z,7.70
2017-11-01T09:48:03.931Z,7.47
2017-11-01T09:50:31.512Z,7.37
2017-11-01T09:52:59.084Z,5.50
2017-11-01T09:55:26.655Z,6.90
2017-11-01T09:57:54.189Z,5.83
2017-11-01T10:00:22.520Z,4.87
2017-11-01T10:02:50.077Z,5.47
2017-11-01T10:05:17.662Z,5.73
2017-11-01T10:07:45.193Z,5.93
2017-11-01T10:10:12.718Z,5.27
2017-11-01T10:15:43.410Z,6.20
2017-11-01T10:18:10.977Z,5.53
2017-11-01T10:20:38.542Z,4.00
2017-11-01T10:23:06.133Z,5.30
2017-11-01T10:25:33.692Z,5.53
2017-11-01T10:28:01.212Z,4.43
2017-11-01T10:30:28.756Z,3.87
2017-11-01T10:32:56.333Z,5.20
2017-11-01T10:35:23.874Z,3.90
2017-11-01T10:37:52.163Z,4.13
2017-11-01T10:40:19.717Z,4.47
2017-11-01T10:42:47.242Z,4.30
2017-11-01T10:45:14.755Z,4.40
2017-11-01T10:47:42.310Z,3.40
2017-11-01T10:50:09.831Z,4.10
2017-11-01T10:52:37.393Z,5.00
2017-11-01T10:55:05.678Z,4.37
2017-11-01T10:57:33.235Z,4.63
2017-11-01T11:00:00.793Z,4.83
2017-11-01T11:05:18.918Z,3.70
2017-11-01T11:07:47.209Z,4.20
2017-11-01T11:10:15.502Z,4.33
2017-11-01T11:12:43.066Z,3.87
2017-11-01T11:15:11.366Z,4.33
2017-11-01T11:17:38.934Z,3.70
2017-11-01T11:20:06.470Z,4.30
2017-11-01T11:22:34.126Z,3.40
2017-11-01T11:25:01.663Z,3.80
2017-11-01T11:27:29.231Z,2.83
2017-11-01T11:29:56.762Z,3.03
2017-11-01T11:32:24.326Z,4.27
2017-11-01T11:34:51.875Z,3.80
2017-11-01T11:37:19.425Z,3.90
2017-11-01T11:39:46.961Z,3.00
2017-11-01T11:42:14.530Z,3.83
2017-11-01T11:44:42.048Z,3.50
2017-11-01T11:47:09.595Z,3.80
2017-11-01T11:49:37.934Z,3.33
2017-11-01T11:52:05.468Z,4.07
2017-11-01T11:54:32.999Z,3.20
2017-11-01T11:57:00.558Z,3.40
2017-11-01T11:59:28.099Z,2.80
2017-11-01T12:01:55.674Z,3.57
2017-11-01T12:04:23.666Z,3.63
2017-11-01T12:06:51.226Z,3.40
2017-11-01T12:09:18.755Z,3.10
2017-11-01T12:11:46.314Z,3.23
2017-11-01T12:14:13.846Z,3.30
2017-11-01T12:16:41.366Z,2.80
2017-11-01T12:19:09.760Z,2.77
2017-11-01T12:21:38.045Z,2.87
2017-11-01T12:24:05.578Z,2.83
2017-11-01T12:26:33.155Z,2.87
2017-11-01T12:29:00.712Z,2.67
2017-11-01T12:31:28.230Z,3.17
2017-11-01T12:33:55.782Z,2.40
2017-11-01T12:36:23.307Z,2.80
2017-11-01T12:38:50.862Z,2.43
2017-11-01T12:41:19.199Z,2.10
2017-11-01T12:43:46.730Z,2.77
2017-11-01T12:46:15.019Z,2.30
2017-11-01T12:48:43.346Z,1.97
2017-11-01T12:51:10.903Z,2.80
2017-11-01T12:53:38.434Z,2.93
2017-11-01T12:56:06.009Z,2.13
2017-11-01T12:58:33.581Z,2.40
2017-11-01T13:01:01.101Z,2.67
2017-11-01T13:03:28.661Z,2.53
2017-11-01T13:05:56.194Z,2.60
2017-11-01T13:08:23.715Z,2.53
2017-11-01T13:10:51.294Z,2.20
2017-11-01T13:13:18.826Z,2.60
2017-11-01T13:15:46.355Z,2.53
2017-11-01T13:18:13.907Z,2.63
2017-11-01T13:20:41.434Z,2.90
2017-11-01T13:23:09.018Z,2.43
2017-11-01T13:25:36.550Z,2.10
2017-11-01T13:28:04.085Z,1.93
2017-11-01T13:30:31.663Z,2.07
2017-11-01T13:32:59.193Z,2.50
2017-11-01T13:35:27.514Z,2.07
2017-11-01T13:37:55.040Z,2.07
2017-11-01T13:40:22.621Z,1.93
2017-11-01T13:42:50.922Z,2.23
2017-11-01T13:45:19.217Z,2.57
2017-11-01T13:47:47.543Z,2.20
2017-11-01T13:50:15.064Z,2.40
2017-11-01T13:52:42.633Z,2.33
2017-11-01T13:55:10.163Z,1.73
2017-11-01T13:57:37.744Z,2.30
2017-11-01T14:00:05.270Z,2.00
2017-11-01T14:02:32.786Z,1.73
2017-11-01T14:05:00.350Z,1.97
2017-11-01T14:07:27.881Z,1.30
2017-11-01T14:09:55.411Z,1.60
2017-11-01T14:12:22.974Z,1.93
2017-11-01T14:14:50.511Z,1.83
2017-11-01T14:17:18.082Z,1.70
2017-11-01T14:19:45.651Z,2.10
2017-11-01T14:22:13.176Z,2.03
2017-11-01T14:24:40.742Z,2.20
2017-11-01T14:27:08.302Z,2.40
2017-11-01T14:29:35.829Z,1.90
2017-11-01T14:32:03.351Z,1.80
2017-11-01T14:34:30.924Z,1.73
2017-11-01T14:36:58.447Z,1.53
2017-11-01T14:39:25.970Z,1.80
2017-11-01T14:41:53.525Z,1.90
2017-11-01T14:44:21.099Z,1.80
2017-11-01T14:46:48.626Z,1.90
2017-11-01T14:49:16.153Z,1.40
2017-11-01T14:51:43.714Z,2.13
2017-11-01T14:54:11.242Z,1.73
2017-11-01T14:56:38.774Z,1.83
2017-11-01T14:59:06.343Z,1.60
2017-11-01T15:01:33.868Z,1.43
2017-11-01T15:04:01.398Z,1.80
2017-11-01T15:06:28.980Z,1.70
2017-11-01T15:08:56.526Z,2.37
2017-11-01T15:11:24.076Z,2.03
2017-11-01T15:13:51.630Z,1.70
2017-11-01T15:16:19.194Z,2.13
2017-11-01T15:18:46.727Z,1.80
2017-11-01T15:21:14.254Z,2.40
2017-11-01T15:23:41.817Z,1.93
2017-11-01T15:26:09.360Z,1.87
2017-11-01T15:28:37.641Z,2.07
2017-11-01T15:31:05.958Z,2.37
2017-11-01T15:33:33.484Z,2.13
2017-11-01T15:36:01.038Z,2.13
2017-11-01T15:38:28.563Z,4.30
2017-11-01T15:40:56.878Z,2.47
2017-11-01T15:43:24.401Z,2.90
2017-11-01T15:45:51.977Z,2.27
2017-11-01T15:48:19.506Z,1.97
2017-11-01T15:50:47.048Z,3.20
2017-11-01T15:53:14.619Z,2.50
2017-11-01T15:55:42.153Z,2.70
2017-11-01T15:58:09.679Z,3.90
2017-11-01T16:00:37.256Z,2.00
2017-11-01T16:03:04.779Z,2.83
2017-11-01T16:05:32.346Z,2.57
2017-11-01T16:07:59.878Z,3.03
2017-11-01T16:10:27.404Z,3.73
2017-11-01T16:12:55.889Z,2.20
2017-11-01T16:15:23.410Z,2.97
2017-11-01T16:17:50.934Z,2.47
2017-11-01T16:20:18.498Z,2.83
2017-11-01T16:22:46.024Z,2.70
2017-11-01T16:25:13.583Z,2.40
2017-11-01T16:27:41.114Z,3.90
2017-11-01T16:30:08.687Z,3.60
2017-11-01T16:32:36.210Z,3.80
2017-11-01T16:35:03.750Z,3.60
2017-11-01T16:37:32.074Z,3.40
2017-11-01T16:39:59.649Z,4.30
2017-11-01T16:42:27.176Z,8.17
2017-11-01T16:44:55.479Z,7.30
2017-11-01T16:47:23.791Z,4.70
2017-11-01T16:49:51.323Z,4.70
2017-11-01T16:52:18.885Z,4.63
2017-11-01T16:54:46.409Z,5.03
2017-11-01T16:57:13.969Z,4.63
2017-11-01T16:59:41.565Z,4.40
2017-11-01T17:02:09.108Z,5.10
2017-11-01T17:04:36.674Z,4.10
2017-11-01T17:07:05.102Z,4.60
2017-11-01T17:09:32.763Z,3.73
2017-11-01T17:12:01.109Z,4.20
2017-11-01T17:14:28.638Z,4.30
2017-11-01T17:16:56.173Z,6.13
2017-11-01T17:19:23.729Z,4.80
2017-11-01T17:21:51.253Z,4.30
2017-11-01T17:24:19.579Z,4.50
2017-11-01T17:26:47.105Z,3.93
2017-11-01T17:29:15.030Z,4.30
2017-11-01T17:31:42.565Z,4.73
2017-11-01T17:34:10.100Z,4.93
2017-11-01T17:36:38.517Z,4.90
2017-11-01T17:39:06.060Z,3.83
2017-11-01T17:41:34.421Z,5.40
2017-11-01T17:44:01.991Z,6.20
2017-11-01T17:46:29.523Z,9.37
2017-11-01T17:48:57.818Z,8.20
2017-11-01T17:51:25.380Z,7.40
2017-11-01T17:53:53.674Z,6.77
2017-11-01T17:56:22.016Z,6.57
2017-11-01T17:58:49.579Z,6.90
2017-11-01T18:01:17.118Z,6.80
2017-11-01T18:03:44.638Z,5.50
2017-11-01T18:06:12.205Z,5.30
2017-11-01T18:08:39.737Z,6.30
2017-11-01T18:11:07.320Z,7.13
2017-11-01T18:13:34.877Z,6.70
2017-11-01T18:16:02.446Z,6.87
2017-11-01T18:18:29.982Z,9.67
2017-11-01T18:20:57.606Z,8.70
2017-11-01T18:23:25.197Z,7.87
2017-11-01T18:25:52.724Z,9.33
2017-11-01T18:28:20.276Z,8.13
2017-11-01T18:30:47.849Z,8.00
2017-11-01T18:33:15.382Z,9.50
2017-11-01T18:35:42.910Z,7.80
2017-11-01T18:38:10.478Z,7.47
2017-11-01T18:40:38.014Z,8.07
2017-11-01T18:43:05.585Z,9.10
2017-11-01T18:45:33.131Z,8.00
2017-11-01T18:48:00.667Z,9.93
2017-11-01T18:50:28.286Z,7.63
2017-11-01T18:52:55.826Z,7.90
2017-11-01T18:55:24.151Z,7.27
2017-11-01T18:57:51.703Z,7.60
2017-11-01T19:00:20.039Z,7.53
2017-11-01T19:02:47.566Z,8.87
2017-11-01T19:05:15.896Z,8.93
2017-11-01T19:07:43.452Z,7.70
2017-11-01T19:10:10.983Z,8.50
2017-11-01T19:12:38.546Z,8.30
2017-11-01T19:15:06.130Z,7.80
2017-11-01T19:17:34.503Z,6.90
2017-11-01T19:20:02.038Z,8.60
2017-11-01T19:22:29.566Z,7.60
2017-11-01T19:24:57.122Z,7.40
2017-11-01T19:27:24.639Z,7.10
2017-11-01T19:29:52.210Z,9.63
2017-11-01T19:32:19.782Z,7.17
2017-11-01T19:34:47.436Z,8.63
2017-11-01T19:37:14.974Z,7.43
2017-11-01T19:39:42.538Z,8.40
2017-11-01T19:42:10.075Z,8.40
2017-11-01T19:44:37.659Z,8.63
2017-11-01T19:47:05.237Z,7.80
2017-11-01T19:49:32.793Z,9.97
2017-11-01T19:52:00.318Z,8.50
2017-11-01T19:54:27.890Z,10.47
2017-11-01T19:56:55.418Z,7.90
2017-11-01T19:59:23.069Z,8.80
2017-11-01T20:01:51.427Z,7.70
2017-11-01T20:04:18.984Z,8.10
2017-11-01T20:06:46.553Z,8.13
2017-11-01T20:09:14.127Z,7.03
2017-11-01T20:11:41.659Z,7.10
2017-11-01T20:14:09.211Z,16.20
2017-11-01T20:16:36.791Z,8.87
2017-11-01T20:19:04.334Z,7.53
2017-11-01T20:21:31.858Z,6.87
2017-11-01T20:23:59.415Z,6.37
2017-11-01T20:26:26.934Z,6.87
2017-11-01T20:28:54.485Z,8.27
2017-11-01T20:31:22.011Z,7.50
2017-11-01T20:33:50.347Z,8.63
2017-11-01T20:36:17.874Z,8.60
2017-11-01T20:38:46.195Z,8.73
2017-11-01T20:41:13.739Z,7.93
2017-11-01T20:43:41.294Z,7.80
2017-11-01T20:46:08.855Z,7.33
2017-11-01T20:48:36.390Z,6.80
2017-11-01T20:51:03.950Z,6.57
2017-11-01T20:53:31.489Z,9.40
2017-11-01T20:55:59.051Z,6.43
2017-11-01T20:58:26.578Z,5.43
2017-11-01T21:00:54.139Z,7.00
2017-11-01T21:03:21.664Z,4.33
2017-11-01T21:05:49.242Z,3.90
2017-11-01T21:08:16.782Z,3.90
2017-11-01T21:10:44.339Z,5.20
2017-11-01T21:13:11.917Z,4.30
2017-11-01T21:15:39.446Z,4.43
2017-11-01T21:18:07.754Z,3.63
2017-11-01T21:20:35.327Z,4.83
2017-11-01T21:23:02.854Z,4.73
2017-11-01T21:25:30.422Z,3.37
2017-11-01T21:27:57.950Z,3.50
2017-11-01T21:30:26.332Z,3.73
2017-11-01T21:32:53.868Z,3.20
2017-11-01T21:35:21.430Z,4.87
2017-11-01T21:37:48.963Z,3.33
2017-11-01T21:40:16.532Z,7.73
2017-11-01T21:42:44.080Z,6.70
2017-11-01T21:45:12.530Z,10.80
2017-11-01T21:47:40.074Z,7.40
2017-11-01T21:50:07.607Z,5.27
2017-11-01T21:52:35.946Z,4.80
2017-11-01T21:55:03.503Z,6.40
2017-11-01T21:57:32.019Z,9.87
2017-11-01T21:59:59.546Z,3.67
2017-11-01T22:02:27.876Z,3.20
2017-11-01T22:04:55.399Z,2.50
2017-11-01T22:07:23.727Z,4.43
2017-11-01T22:09:51.261Z,4.77
2017-11-01T22:12:19.582Z,5.50
2017-11-01T22:14:47.117Z,3.63
2017-11-01T22:17:15.470Z,4.70
2017-11-01T22:19:43.002Z,7.10
2017-11-01T22:22:10.541Z,3.57
2017-11-01T22:24:38.214Z,4.17
2017-11-01T22:27:05.762Z,4.70
2017-11-01T22:29:33.322Z,4.10
2017-11-01T22:32:01.014Z,3.27
2017-11-01T22:34:28.557Z,3.47
2017-11-01T22:36:56.094Z,3.30
2017-11-01T22:39:24.212Z,5.40
2017-11-01T22:41:55.886Z,4.00
2017-11-01T22:44:23.904Z,3.63
2017-11-01T22:46:51.478Z,4.37
2017-11-01T22:49:19.003Z,4.30
2017-11-01T22:51:46.549Z,3.20
2017-11-01T22:54:14.847Z,3.30
2017-11-01T22:56:42.429Z,2.80
2017-11-01T22:59:09.957Z,3.40
2017-11-01T23:01:37.510Z,3.20
2017-11-01T23:04:05.079Z,3.10
2017-11-01T23:06:32.669Z,3.00
2017-11-01T23:09:00.203Z,3.07
2017-11-01T23:11:27.758Z,3.80
2017-11-01T23:13:55.548Z,3.20
2017-11-01T23:16:23.235Z,2.93
2017-11-01T23:18:50.826Z,2.90
2017-11-01T23:21:18.387Z,3.47
2017-11-01T23:23:45.937Z,4.17
2017-11-01T23:26:13.502Z,3.70
2017-11-01T23:28:41.050Z,3.80
2017-11-01T23:31:09.388Z,3.73
2017-11-01T23:33:36.921Z,3.43
2017-11-01T23:36:05.649Z,3.73
2017-11-01T23:38:33.269Z,4.07
2017-11-01T23:41:00.828Z,3.00
2017-11-01T23:43:28.405Z,2.93
2017-11-01T23:45:55.924Z,3.30
2017-11-01T23:48:23.462Z,3.30
2017-11-01T23:50:51.031Z,3.60
2017-11-01T23:53:18.565Z,3.70
2017-11-01T23:55:46.116Z,2.83
2017-11-01T23:58:13.679Z,3.80
